Time;durP1;ratioP1;P1;durP2;ratioP2;P2;SDS_P1;SDS_P2;PMS_P1;PMS_P2;Temp;Humidity;BMP_temperature;BMP_pressure;BME280_temperature;BME280_humidity;BME280_pressure;Samples;Min_cycle;Max_cycle;Signal;HPM_P1;HPM_P2
2021/04/11 00:02:24;;;;;;;1.50;1.00;;;10.80;98.20;;;;;;4972154;28;20637;-78
2021/04/11 00:04:52;;;;;;;1.53;1.20;;;10.80;98.20;;;;;;4983210;28;20835;-78
2021/04/11 00:07:18;;;;;;;1.50;1.00;;;10.80;98.20;;;;;;4976727;28;20492;-78
2021/04/11 00:09:45;;;;;;;1.50;1.10;;;10.80;98.20;;;;;;4982191;28;20968;-78
2021/04/11 00:12:11;;;;;;;1.50;1.00;;;10.80;98.20;;;;;;4973026;28;20488;-78
2021/04/11 00:14:37;;;;;;;1.60;1.30;;;10.80;98.20;;;;;;4982158;28;20547;-78
2021/04/11 00:17:06;;;;;;;1.60;1.20;;;10.80;98.20;;;;;;4971583;28;20569;-78
2021/04/11 00:19:32;;;;;;;1.50;1.10;;;10.90;98.20;;;;;;4981961;28;20901;-79
2021/04/11 00:22:00;;;;;;;1.50;1.00;;;10.90;98.20;;;;;;4972675;28;20483;-78
2021/04/11 00:24:26;;;;;;;1.50;1.10;;;10.90;98.20;;;;;;4984503;28;20548;-78
2021/04/11 00:26:52;;;;;;;1.50;1.10;;;10.90;98.20;;;;;;4985618;28;20478;-78
2021/04/11 00:29:18;;;;;;;1.50;1.00;;;10.90;98.20;;;;;;4994990;28;20485;-77
2021/04/11 00:31:45;;;;;;;1.60;1.20;;;10.80;98.20;;;;;;4968207;28;21027;-78
2021/04/11 00:34:11;;;;;;;1.50;1.00;;;10.80;98.20;;;;;;4987978;28;20875;-78
2021/04/11 00:36:37;;;;;;;1.53;1.13;;;10.80;98.20;;;;;;4977985;28;20562;-77
2021/04/11 00:39:06;;;;;;;1.50;1.10;;;10.80;98.20;;;;;;4989089;28;20552;-77
2021/04/11 00:41:35;;;;;;;1.53;1.10;;;10.80;98.20;;;;;;4975466;28;20472;-75
2021/04/11 00:44:03;;;;;;;1.57;1.10;;;10.80;98.20;;;;;;4988963;28;20584;-77
2021/04/11 00:46:43;;;;;;;1.53;1.13;;;10.80;98.20;;;;;;4968849;28;21023;-77
2021/04/11 00:49:14;;;;;;;1.60;1.10;;;10.80;98.20;;;;;;4985859;28;20480;-77
2021/04/11 00:51:40;;;;;;;1.60;1.10;;;10.80;98.20;;;;;;4970090;28;20472;-77
2021/04/11 00:54:08;;;;;;;1.53;1.10;;;10.80;98.20;;;;;;4980532;28;20492;-77
2021/04/11 00:56:36;;;;;;;1.50;1.10;;;10.80;98.20;;;;;;4974950;28;20531;-77
2021/04/11 00:59:21;;;;;;;1.50;1.10;;;10.80;98.20;;;;;;4989070;28;21048;-77
2021/04/11 01:01:47;;;;;;;1.50;1.10;;;10.80;98.20;;;;;;4969453;28;20481;-76
2021/04/11 01:04:16;;;;;;;1.50;1.10;;;10.80;98.20;;;;;;4988911;28;20523;-78
2021/04/11 01:06:49;;;;;;;1.50;1.10;;;10.80;98.20;;;;;;4985215;28;20574;-78
2021/04/11 01:09:22;;;;;;;1.60;1.23;;;10.80;98.20;;;;;;4991567;28;20896;-77
2021/04/11 01:11:49;;;;;;;1.60;1.20;;;10.80;98.20;;;;;;4986220;28;20476;-77
2021/04/11 01:14:19;;;;;;;1.60;1.20;;;10.80;98.20;;;;;;4998615;28;20832;-76
2021/04/11 01:16:45;;;;;;;1.60;1.20;;;10.80;98.20;;;;;;4990522;28;20937;-77
2021/04/11 01:19:16;;;;;;;1.50;1.10;;;10.80;98.20;;;;;;4996370;28;20509;-77
2021/04/11 01:21:58;;;;;;;1.50;1.00;;;10.80;98.20;;;;;;4963893;28;20880;-77
2021/04/11 01:24:37;;;;;;;1.50;1.13;;;10.80;98.20;;;;;;4989199;28;20495;-77
2021/04/11 01:27:05;;;;;;;1.50;1.10;;;10.90;98.20;;;;;;4992364;28;20854;-78
2021/04/11 01:29:36;;;;;;;1.53;1.10;;;10.90;98.20;;;;;;4987344;28;21276;-78
2021/04/11 01:32:17;;;;;;;1.50;1.10;;;10.90;98.20;;;;;;4977496;28;20507;-78
2021/04/11 01:34:44;;;;;;;1.50;1.10;;;10.90;98.20;;;;;;4982305;28;20457;-78
2021/04/11 01:37:13;;;;;;;1.57;1.10;;;10.90;98.20;;;;;;4979946;28;20484;-78
2021/04/11 01:39:43;;;;;;;1.50;1.00;;;10.90;98.20;;;;;;4982072;28;20482;-78
2021/04/11 01:42:10;;;;;;;1.53;1.10;;;10.90;98.20;;;;;;4977501;28;20766;-79
2021/04/11 01:44:40;;;;;;;1.50;1.03;;;10.90;98.20;;;;;;4989660;28;20493;-79
2021/04/11 01:47:08;;;;;;;1.57;1.10;;;10.90;98.20;;;;;;4980517;28;20492;-79
2021/04/11 01:49:35;;;;;;;1.57;1.10;;;10.90;98.20;;;;;;4985648;28;20480;-79
2021/04/11 01:52:07;;;;;;;1.50;1.10;;;10.80;98.20;;;;;;4994752;28;20494;-79
2021/04/11 01:54:35;;;;;;;1.53;1.10;;;10.80;98.20;;;;;;4994497;28;20469;-79
2021/04/11 01:57:08;;;;;;;1.50;1.10;;;10.80;98.20;;;;;;4988276;28;20943;-79
2021/04/11 01:59:35;;;;;;;1.50;1.10;;;10.80;98.20;;;;;;4997266;28;20484;-79
2021/04/11 02:02:02;;;;;;;1.50;1.10;;;10.70;98.20;;;;;;4982575;28;20488;-79
2021/04/11 02:04:32;;;;;;;1.57;1.10;;;10.70;98.20;;;;;;4992597;28;20485;-79
2021/04/11 02:07:01;;;;;;;1.50;1.00;;;10.70;98.20;;;;;;4992514;28;20983;-79
2021/04/11 02:09:32;;;;;;;1.60;1.20;;;10.70;98.20;;;;;;4994154;28;20480;-79
2021/04/11 02:12:00;;;;;;;1.50;1.10;;;10.70;98.20;;;;;;4980687;28;20512;-78
2021/04/11 02:14:30;;;;;;;1.53;1.20;;;10.70;98.20;;;;;;4992572;28;20817;-78
2021/04/11 02:17:00;;;;;;;1.53;1.10;;;10.70;98.20;;;;;;4974942;28;20476;-79
2021/04/11 02:19:28;;;;;;;1.50;1.20;;;10.70;98.20;;;;;;4984247;28;20492;-78
2021/04/11 02:22:02;;;;;;;1.50;1.00;;;10.60;98.20;;;;;;4977345;28;20472;-78
2021/04/11 02:24:30;;;;;;;1.50;1.10;;;10.60;98.20;;;;;;4987483;28;20503;-78
2021/04/11 02:26:57;;;;;;;1.53;1.10;;;10.60;98.20;;;;;;4977459;28;20532;-78
2021/04/11 02:29:25;;;;;;;1.50;1.10;;;10.60;98.20;;;;;;4987946;28;20834;-77
2021/04/11 02:31:52;;;;;;;1.50;1.10;;;10.60;98.20;;;;;;4979321;28;20477;-77
2021/04/11 02:34:24;;;;;;;1.50;1.10;;;10.60;98.20;;;;;;4980073;28;20461;-77
2021/04/11 02:36:53;;;;;;;1.50;1.07;;;10.60;98.20;;;;;;4983532;28;20919;-77
2021/04/11 02:39:24;;;;;;;1.50;1.10;;;10.60;98.20;;;;;;4989842;28;20485;-78
2021/04/11 02:41:53;;;;;;;1.50;1.00;;;10.50;98.20;;;;;;4978244;28;20478;-78
2021/04/11 02:44:19;;;;;;;1.50;1.10;;;10.40;98.20;;;;;;4982812;28;20500;-79
2021/04/11 02:46:47;;;;;;;1.60;1.30;;;10.30;98.20;;;;;;4985163;28;20797;-79
2021/04/11 02:49:24;;;;;;;1.57;1.10;;;10.20;98.20;;;;;;4994710;28;21010;-79
2021/04/11 02:51:54;;;;;;;1.50;1.10;;;10.20;98.20;;;;;;4969568;28;20493;-77
2021/04/11 02:54:24;;;;;;;1.60;1.20;;;10.10;98.20;;;;;;4978994;28;20871;-77
2021/04/11 02:56:51;;;;;;;1.53;1.13;;;10.00;98.20;;;;;;4981492;28;20480;-78
2021/04/11 02:59:19;;;;;;;1.57;1.20;;;9.90;98.20;;;;;;4992063;28;20955;-77
2021/04/11 03:01:50;;;;;;;2.20;1.80;;;9.80;98.20;;;;;;4975898;28;20476;-77
2021/04/11 03:04:20;;;;;;;1.50;1.20;;;9.70;98.20;;;;;;4986537;28;20485;-77
2021/04/11 03:06:52;;;;;;;1.50;1.10;;;9.60;98.20;;;;;;4976378;28;20489;-77
2021/04/11 03:09:22;;;;;;;1.57;1.10;;;9.50;98.20;;;;;;4981201;28;20539;-77
2021/04/11 03:11:52;;;;;;;1.57;1.10;;;9.40;98.20;;;;;;4970560;28;20548;-77
2021/04/11 03:14:22;;;;;;;1.53;1.20;;;9.30;98.20;;;;;;4982475;28;20461;-77
2021/04/11 03:16:49;;;;;;;1.57;1.13;;;9.20;98.20;;;;;;4973606;28;20481;-76
2021/04/11 03:19:24;;;;;;;1.60;1.17;;;9.10;98.20;;;;;;4983773;28;20480;-76
2021/04/11 03:21:51;;;;;;;1.50;1.10;;;9.00;98.20;;;;;;4979130;28;20557;-76
2021/04/11 03:24:17;;;;;;;1.60;1.40;;;9.00;98.20;;;;;;4986428;28;20490;-76
2021/04/11 03:26:47;;;;;;;1.53;1.10;;;8.90;98.20;;;;;;4976085;28;20483;-76
2021/04/11 03:29:18;;;;;;;1.50;1.10;;;8.90;98.20;;;;;;4990654;28;20481;-76
2021/04/11 03:31:51;;;;;;;1.60;1.30;;;8.80;98.20;;;;;;4979439;28;20480;-76
2021/04/11 03:34:20;;;;;;;1.57;1.20;;;8.80;98.20;;;;;;4990814;28;20461;-77
2021/04/11 03:36:47;;;;;;;1.60;1.30;;;8.70;98.20;;;;;;4983243;28;20534;-76
2021/04/11 03:39:14;;;;;;;1.53;1.20;;;8.60;98.20;;;;;;4993687;28;20491;-76
2021/04/11 03:41:42;;;;;;;1.53;1.17;;;8.50;98.20;;;;;;4947569;28;597383;-76
2021/04/11 03:44:11;;;;;;;1.57;1.20;;;8.50;98.20;;;;;;4994277;28;20253;-76
2021/04/11 03:46:42;;;;;;;1.60;1.20;;;8.40;98.20;;;;;;4973978;28;20490;-76
2021/04/11 03:49:19;;;;;;;1.57;1.10;;;8.30;98.20;;;;;;4985589;28;21006;-76
2021/04/11 03:51:49;;;;;;;1.60;1.30;;;8.30;98.20;;;;;;4981073;28;21021;-77
2021/04/11 03:54:18;;;;;;;1.60;1.20;;;8.20;98.20;;;;;;4991971;28;20547;-77
2021/04/11 03:56:49;;;;;;;1.57;1.20;;;8.20;98.20;;;;;;4977849;28;20535;-77
2021/04/11 03:59:23;;;;;;;1.60;1.30;;;8.20;98.20;;;;;;4989872;28;20488;-77
2021/04/11 04:01:54;;;;;;;1.57;1.10;;;8.10;98.20;;;;;;4978401;28;20485;-77
2021/04/11 04:04:23;;;;;;;1.53;1.20;;;8.10;98.20;;;;;;4986685;28;20489;-77
2021/04/11 04:07:08;;;;;;;1.53;1.20;;;7.90;98.20;;;;;;4981478;28;20473;-77
2021/04/11 04:12:30;;;;;;;1.60;1.40;;;7.70;98.20;;;;;;4959885;28;20565;-77
2021/04/11 04:15:09;;;;;;;1.60;1.20;;;7.70;98.20;;;;;;4983626;28;20529;-76
2021/04/11 04:17:51;;;;;;;1.57;1.20;;;7.70;98.20;;;;;;4988948;28;20567;-76
2021/04/11 04:20:35;;;;;;;1.53;1.17;;;7.60;98.20;;;;;;4978505;28;20531;-77
2021/04/11 04:23:12;;;;;;;1.53;1.20;;;7.50;98.20;;;;;;4970518;28;20480;-76
2021/04/11 04:25:56;;;;;;;1.60;1.30;;;7.50;98.20;;;;;;4990696;28;20469;-76
2021/04/11 04:28:49;;;;;;;1.60;1.50;;;7.40;98.20;;;;;;4966745;28;20524;-76
2021/04/11 04:31:28;;;;;;;1.53;1.20;;;7.30;98.20;;;;;;4972023;28;20482;-77
2021/04/11 04:34:07;;;;;;;1.53;1.20;;;7.30;98.20;;;;;;4989081;28;20465;-76
2021/04/11 04:36:41;;;;;;;1.57;1.20;;;7.30;98.20;;;;;;4969759;28;20485;-77
2021/04/11 04:39:29;;;;;;;1.60;1.20;;;7.20;98.20;;;;;;4983604;28;20868;-76
2021/04/11 04:42:13;;;;;;;1.60;1.23;;;7.10;98.20;;;;;;4976656;28;20484;-76
2021/04/11 04:44:54;;;;;;;1.60;1.30;;;7.10;98.20;;;;;;4974764;28;20564;-77
2021/04/11 04:47:35;;;;;;;1.60;1.30;;;7.10;98.20;;;;;;4973191;28;20489;-76
2021/04/11 04:50:09;;;;;;;1.53;1.20;;;7.10;98.20;;;;;;4989653;28;20988;-77
2021/04/11 04:52:48;;;;;;;1.60;1.30;;;7.00;98.20;;;;;;4969311;28;20553;-77
2021/04/11 04:55:21;;;;;;;1.60;1.30;;;7.00;98.20;;;;;;4988625;28;20468;-77
2021/04/11 04:57:52;;;;;;;1.60;1.30;;;6.90;98.20;;;;;;4969139;28;20481;-76
2021/04/11 05:00:23;;;;;;;1.50;1.20;;;6.90;98.20;;;;;;4983742;28;20870;-76
2021/04/11 05:03:04;;;;;;;1.60;1.30;;;6.90;98.20;;;;;;4973331;28;21084;-76
2021/04/11 05:05:44;;;;;;;1.60;1.20;;;6.90;98.20;;;;;;4985472;28;20737;-76
2021/04/11 05:08:15;;;;;;;1.60;1.30;;;6.80;98.20;;;;;;4972355;28;20478;-76
2021/04/11 05:11:01;;;;;;;1.60;1.30;;;6.80;98.20;;;;;;4985058;28;20486;-76
2021/04/11 05:13:31;;;;;;;1.57;1.20;;;6.70;98.20;;;;;;4971935;28;21053;-76
2021/04/11 05:16:27;;;;;;;1.60;1.40;;;6.70;98.20;;;;;;4964393;28;20466;-76
2021/04/11 05:19:01;;;;;;;1.60;1.50;;;6.60;98.20;;;;;;4980760;28;20486;-76
2021/04/11 05:21:36;;;;;;;1.50;1.20;;;6.50;98.20;;;;;;4968536;28;20563;-76
2021/04/11 05:24:08;;;;;;;1.60;1.20;;;6.40;98.20;;;;;;4982100;28;20485;-77
2021/04/11 05:26:58;;;;;;;1.60;1.30;;;6.40;98.20;;;;;;4973664;28;20485;-77
2021/04/11 05:29:40;;;;;;;1.57;1.20;;;6.30;98.20;;;;;;4974870;28;20927;-76
2021/04/11 05:32:07;;;;;;;1.60;1.30;;;6.30;98.20;;;;;;4984198;28;20484;-77
2021/04/11 05:34:33;;;;;;;1.93;1.73;;;6.30;98.20;;;;;;4985956;28;20496;-76
2021/04/11 05:37:10;;;;;;;1.60;1.40;;;6.30;98.20;;;;;;4971372;28;20512;-76
2021/04/11 05:39:51;;;;;;;1.60;1.30;;;6.20;98.20;;;;;;4976853;28;20515;-76
2021/04/11 05:42:35;;;;;;;1.57;1.30;;;6.20;98.20;;;;;;4978704;28;20850;-76
2021/04/11 05:45:10;;;;;;;1.60;1.30;;;6.30;98.20;;;;;;4985637;28;20516;-76
2021/04/11 05:47:52;;;;;;;1.60;1.30;;;6.20;98.20;;;;;;4994326;28;20510;-76
2021/04/11 05:50:36;;;;;;;1.53;1.20;;;6.20;98.20;;;;;;4986471;28;20485;-76
2021/04/11 05:53:13;;;;;;;1.60;1.30;;;6.20;98.20;;;;;;4999621;28;20487;-76
2021/04/11 05:55:44;;;;;;;1.60;1.30;;;6.20;98.20;;;;;;4988153;28;20471;-76
2021/04/11 05:58:16;;;;;;;1.57;1.20;;;6.20;98.20;;;;;;4997882;28;20488;-76
2021/04/11 06:00:46;;;;;;;1.60;1.30;;;6.20;98.20;;;;;;4987472;28;20485;-76
2021/04/11 06:03:19;;;;;;;1.60;1.20;;;6.20;98.20;;;;;;4971403;28;20921;-76
2021/04/11 06:05:54;;;;;;;1.60;1.30;;;6.20;98.20;;;;;;4983190;28;20501;-76
2021/04/11 06:08:28;;;;;;;1.60;1.30;;;6.10;98.20;;;;;;4977745;28;20473;-76
2021/04/11 06:11:00;;;;;;;1.60;1.30;;;6.10;98.20;;;;;;4972559;28;20485;-75
2021/04/11 06:13:44;;;;;;;1.60;1.30;;;6.10;98.20;;;;;;4980603;28;20814;-76
2021/04/11 06:16:15;;;;;;;1.60;1.40;;;6.10;98.20;;;;;;4975082;28;21011;-76
2021/04/11 06:18:42;;;;;;;1.60;1.30;;;6.00;98.20;;;;;;4986467;28;20837;-76
2021/04/11 06:21:26;;;;;;;1.60;1.27;;;6.00;98.20;;;;;;4980332;28;20520;-76
2021/04/11 06:24:00;;;;;;;1.60;1.30;;;5.90;98.20;;;;;;4977942;28;20481;-76
2021/04/11 06:26:37;;;;;;;1.60;1.30;;;5.90;98.20;;;;;;4975455;28;20486;-76
2021/04/11 06:29:11;;;;;;;1.60;1.30;;;5.90;98.20;;;;;;4980596;28;20485;-76
2021/04/11 06:31:53;;;;;;;1.60;1.40;;;5.80;98.20;;;;;;4984723;28;20659;-76
2021/04/11 06:34:52;;;;;;;1.60;1.30;;;5.80;98.20;;;;;;4995989;28;20488;-76
2021/04/11 06:37:21;;;;;;;1.60;1.30;;;5.80;98.20;;;;;;4979094;28;20491;-76
2021/04/11 06:39:52;;;;;;;1.60;1.30;;;5.80;98.20;;;;;;4983206;28;20560;-76
2021/04/11 06:42:56;;;;;;;1.60;1.30;;;5.80;98.20;;;;;;4972794;28;21076;-76
2021/04/11 06:45:32;;;;;;;1.53;1.27;;;5.80;98.20;;;;;;4981256;28;20908;-76
2021/04/11 06:48:25;;;;;;;1.60;1.30;;;5.80;98.20;;;;;;4988073;28;20506;-76
2021/04/11 06:51:26;;;;;;;1.60;1.30;;;5.80;98.20;;;;;;4973786;28;20486;-76
2021/04/11 06:54:41;;;;;;;1.60;1.30;;;5.80;98.20;;;;;;4946575;28;20526;-76
2021/04/11 06:57:18;;;;;;;1.60;1.30;;;5.80;98.20;;;;;;4899458;29;20834;-76
2021/04/11 07:00:00;;;;;;;1.60;1.40;;;5.80;98.20;;;;;;4978389;28;20485;-77
2021/04/11 07:03:13;;;;;;;1.60;1.40;;;5.80;98.20;;;;;;4966191;28;20488;-77
2021/04/11 07:06:10;;;;;;;11.40;3.33;;;5.80;98.20;;;;;;4982856;28;20615;-77
2021/04/11 07:09:05;;;;;;;1.60;1.30;;;5.80;98.20;;;;;;4999810;23;20505;-78
2021/04/11 07:12:05;;;;;;;1.50;1.30;;;5.80;98.20;;;;;;4993074;28;20476;-78
2021/04/11 07:14:59;;;;;;;1.60;1.40;;;5.80;98.20;;;;;;4976297;28;20559;-76
2021/04/11 07:18:02;;;;;;;1.60;1.30;;;5.80;98.20;;;;;;4994004;28;20995;-77
2021/04/11 07:20:52;;;;;;;1.60;1.40;;;5.80;98.20;;;;;;5001878;28;20475;-76
2021/04/11 07:24:17;;;;;;;1.60;1.30;;;5.80;98.20;;;;;;4998693;28;20484;-76
2021/04/11 07:26:56;;;;;;;1.60;1.40;;;5.80;98.20;;;;;;4963824;28;20529;-76
2021/04/11 07:29:34;;;;;;;1.60;1.30;;;5.80;98.20;;;;;;4997049;28;21034;-75
2021/04/11 07:32:16;;;;;;;1.60;1.30;;;5.80;98.20;;;;;;4990319;28;20581;-76
2021/04/11 07:35:07;;;;;;;1.60;1.40;;;5.80;98.20;;;;;;4992721;28;20469;-76
2021/04/11 07:40:45;;;;;;;1.60;1.40;;;5.70;98.20;;;;;;4991461;26;20544;-76
2021/04/11 07:43:36;;;;;;;1.60;1.30;;;5.70;98.20;;;;;;5006457;28;20572;-76
2021/04/11 07:46:36;;;;;;;1.60;1.30;;;5.70;98.20;;;;;;4991150;28;20469;-76
2021/04/11 07:49:29;;;;;;;1.60;1.27;;;5.70;98.20;;;;;;5009718;28;20896;-76
2021/04/11 07:52:09;;;;;;;1.60;1.50;;;5.60;98.20;;;;;;5000099;28;20471;-77
2021/04/11 07:54:47;;;;;;;1.60;1.40;;;5.60;98.20;;;;;;5008367;28;20464;-76
2021/04/11 07:57:47;;;;;;;1.60;1.30;;;5.60;98.20;;;;;;5004700;28;20478;-76
2021/04/11 08:00:26;;;;;;;1.60;1.43;;;5.60;98.20;;;;;;4933294;28;20580;-76
2021/04/11 08:03:19;;;;;;;1.60;1.30;;;5.50;98.20;;;;;;5006595;28;20493;-76
2021/04/11 08:06:26;;;;;;;1.60;1.40;;;5.50;98.20;;;;;;5002453;28;20530;-76
2021/04/11 08:09:11;;;;;;;1.57;1.30;;;5.50;98.20;;;;;;4970985;28;20839;-77
2021/04/11 08:12:22;;;;;;;1.60;1.50;;;5.50;98.20;;;;;;5004238;28;20675;-78
2021/04/11 08:15:01;;;;;;;1.60;1.33;;;5.40;98.20;;;;;;5009161;28;21027;-76
2021/04/11 08:18:01;;;;;;;1.60;1.50;;;5.50;98.20;;;;;;4997978;28;21166;-77
2021/04/11 08:20:49;;;;;;;1.60;1.30;;;5.50;98.20;;;;;;5008017;28;20537;-77
2021/04/11 08:23:52;;;;;;;1.60;1.20;;;5.50;98.20;;;;;;4989197;28;20483;-76
2021/04/11 08:26:55;;;;;;;1.60;1.40;;;5.50;98.20;;;;;;4992907;28;20544;-75
2021/04/11 08:29:56;;;;;;;1.60;1.30;;;5.50;98.20;;;;;;5015447;28;20687;-77
2021/04/11 08:33:10;;;;;;;1.60;1.30;;;5.50;98.20;;;;;;4993440;28;20747;-76
2021/04/11 08:35:43;;;;;;;1.60;1.30;;;5.50;98.20;;;;;;4896286;28;20525;-76
2021/04/11 08:38:37;;;;;;;1.53;1.30;;;5.50;98.20;;;;;;5002012;28;20489;-75
2021/04/11 08:41:33;;;;;;;1.60;1.30;;;5.50;98.20;;;;;;4991138;28;20502;-76
2021/04/11 08:44:11;;;;;;;1.57;1.30;;;5.60;98.20;;;;;;5006801;28;20780;-75
2021/04/11 08:46:50;;;;;;;1.53;1.30;;;5.50;98.20;;;;;;4997232;28;20517;-75
2021/04/11 08:49:23;;;;;;;1.57;1.30;;;5.50;98.20;;;;;;5000394;28;20492;-77
2021/04/11 08:52:01;;;;;;;1.60;1.30;;;5.50;98.20;;;;;;4990168;28;20487;-76
2021/04/11 08:54:48;;;;;;;1.60;1.37;;;5.50;98.20;;;;;;5003943;28;20460;-77
2021/04/11 08:57:32;;;;;;;1.60;1.30;;;5.60;98.20;;;;;;4997534;28;20479;-79
2021/04/11 09:00:09;;;;;;;1.57;1.30;;;5.60;98.20;;;;;;4999717;28;20976;-77
2021/04/11 09:03:01;;;;;;;1.60;1.30;;;5.60;98.20;;;;;;4998626;28;20919;-76
2021/04/11 09:05:36;;;;;;;1.60;1.20;;;5.60;98.20;;;;;;4985579;28;20504;-76
2021/04/11 09:08:15;;;;;;;1.60;1.30;;;5.70;98.20;;;;;;5000893;28;20487;-76
2021/04/11 09:11:07;;;;;;;1.60;1.40;;;5.70;98.20;;;;;;5023158;22;21115;-78
2021/04/11 09:13:48;;;;;;;1.60;1.30;;;5.60;98.20;;;;;;5004488;28;21152;-77
2021/04/11 09:16:23;;;;;;;1.53;1.30;;;5.60;98.20;;;;;;5010446;28;20482;-76
2021/04/11 09:19:03;;;;;;;1.60;1.40;;;5.60;98.20;;;;;;5023242;28;20468;-76
2021/04/11 09:21:45;;;;;;;1.57;1.20;;;5.60;98.20;;;;;;5001834;28;20565;-76
2021/04/11 09:24:15;;;;;;;1.60;1.50;;;5.60;98.20;;;;;;5016868;28;20493;-77
2021/04/11 09:27:18;;;;;;;1.53;1.30;;;5.60;98.20;;;;;;5007043;28;20515;-76
2021/04/11 09:29:55;;;;;;;1.60;1.50;;;5.60;98.20;;;;;;4990299;28;21188;-75
2021/04/11 09:32:56;;;;;;;1.53;1.20;;;5.60;98.20;;;;;;5002078;28;20515;-77
2021/04/11 09:35:30;;;;;;;1.60;1.30;;;5.60;98.20;;;;;;5008127;28;20468;-76
2021/04/11 09:38:39;;;;;;;1.57;1.30;;;5.60;98.20;;;;;;5010860;28;21015;-77
2021/04/11 09:41:34;;;;;;;1.60;1.30;;;5.70;98.20;;;;;;4994248;28;20539;-77
2021/04/11 09:44:36;;;;;;;1.60;1.40;;;5.70;98.20;;;;;;5018254;28;20492;-77
2021/04/11 09:47:17;;;;;;;1.60;1.50;;;5.80;98.20;;;;;;4971699;28;21254;-77
2021/04/11 09:49:59;;;;;;;1.60;1.30;;;5.80;98.20;;;;;;5006300;28;20491;-77
2021/04/11 09:53:02;;;;;;;1.60;1.30;;;5.70;98.20;;;;;;5004977;28;20475;-75
2021/04/11 09:55:36;;;;;;;1.60;1.30;;;5.70;98.20;;;;;;5014442;28;21009;-76
2021/04/11 09:58:36;;;;;;;1.60;1.30;;;5.70;98.20;;;;;;5016016;28;20487;-77
2021/04/11 10:01:14;;;;;;;1.57;1.20;;;5.70;98.20;;;;;;4969449;28;20958;-77
2021/04/11 10:03:56;;;;;;;1.50;1.23;;;5.70;98.20;;;;;;5021978;28;20557;-76
2021/04/11 10:07:11;;;;;;;1.57;1.30;;;5.70;98.20;;;;;;5008657;28;20522;-75
2021/04/11 10:10:08;;;;;;;1.60;1.30;;;5.70;98.20;;;;;;4988984;28;20591;-76
2021/04/11 10:12:58;;;;;;;1.57;1.30;;;5.70;98.20;;;;;;5014292;28;20472;-76
2021/04/11 10:15:54;;;;;;;1.60;1.40;;;5.80;98.20;;;;;;5013012;28;20471;-77
2021/04/11 10:24:46;;;;;;;1.60;1.30;;;5.80;98.20;;;;;;5010731;28;20494;-77
2021/04/11 10:27:24;;;;;;;1.57;1.20;;;5.80;98.20;;;;;;5009417;28;20480;-78
2021/04/11 10:29:52;;;;;;;1.60;1.30;;;5.70;98.20;;;;;;5012768;28;20486;-78
2021/04/11 10:32:26;;;;;;;1.60;1.33;;;5.70;98.20;;;;;;5006399;28;20494;-77
2021/04/11 10:35:01;;;;;;;1.53;1.20;;;5.70;98.20;;;;;;5003845;28;20537;-78
2021/04/11 10:37:33;;;;;;;1.60;1.27;;;5.70;98.20;;;;;;5007525;28;20836;-78
2021/04/11 10:40:24;;;;;;;1.60;1.40;;;5.60;98.20;;;;;;5010104;28;20488;-78
2021/04/11 10:43:04;;;;;;;1.60;1.40;;;5.60;98.20;;;;;;5011438;28;20488;-77
2021/04/11 10:45:37;;;;;;;1.60;1.40;;;5.60;98.20;;;;;;5013002;28;20491;-77
2021/04/11 10:48:46;;;;;;;1.57;1.27;;;5.60;98.20;;;;;;5012253;28;20926;-78
2021/04/11 10:51:39;;;;;;;1.60;1.20;;;5.60;98.20;;;;;;5005476;28;20865;-77
2021/04/11 10:54:20;;;;;;;1.57;1.20;;;5.60;98.20;;;;;;5016894;28;20991;-78
2021/04/11 10:56:59;;;;;;;1.60;1.30;;;5.60;98.20;;;;;;5014261;28;20725;-77
2021/04/11 10:59:59;;;;;;;1.60;1.30;;;5.60;98.20;;;;;;5008605;28;20489;-79
2021/04/11 11:03:05;;;;;;;1.60;1.40;;;5.60;98.20;;;;;;5008373;28;20476;-78
2021/04/11 11:06:06;;;;;;;1.60;1.30;;;5.60;98.20;;;;;;5009702;28;20586;-78
2021/04/11 11:09:03;;;;;;;1.60;1.30;;;5.70;98.20;;;;;;4984388;28;20555;-78
2021/04/11 11:11:48;;;;;;;1.57;1.27;;;5.80;98.20;;;;;;5003734;28;20476;-78
2021/04/11 11:14:45;;;;;;;1.60;1.40;;;5.80;98.20;;;;;;5015149;28;21005;-76
2021/04/11 11:17:31;;;;;;;1.53;1.20;;;5.80;98.20;;;;;;5006821;28;20576;-76
2021/04/11 11:20:16;;;;;;;1.60;1.30;;;5.90;98.20;;;;;;5000760;28;20885;-76
2021/04/11 11:23:21;;;;;;;1.53;1.30;;;5.90;98.20;;;;;;5013581;28;20486;-77
2021/04/11 11:26:06;;;;;;;1.60;1.40;;;5.90;98.20;;;;;;4968063;28;20476;-78
2021/04/11 11:29:01;;;;;;;1.60;1.30;;;5.90;98.20;;;;;;5021089;28;20490;-76
2021/04/11 11:31:40;;;;;;;1.60;1.20;;;6.00;98.20;;;;;;5012800;28;20561;-77
2021/04/11 11:34:28;;;;;;;1.60;1.40;;;6.00;98.20;;;;;;5018845;28;20466;-76
2021/04/11 11:37:08;;;;;;;1.60;1.40;;;6.00;98.20;;;;;;5010767;28;20621;-78
2021/04/11 11:39:42;;;;;;;1.60;1.40;;;5.90;98.20;;;;;;5014611;28;20475;-78
2021/04/11 11:42:20;;;;;;;1.53;1.30;;;5.90;98.20;;;;;;5008839;28;20475;-77
2021/04/11 11:44:58;;;;;;;1.60;1.30;;;5.80;98.20;;;;;;5016721;28;21006;-78
2021/04/11 11:47:30;;;;;;;1.60;1.50;;;5.80;98.20;;;;;;5014157;28;20483;-76
2021/04/11 11:50:06;;;;;;;1.60;1.33;;;5.70;98.20;;;;;;5000264;28;20786;-77
2021/04/11 11:52:39;;;;;;;1.60;1.30;;;5.80;98.20;;;;;;5009805;28;20479;-77
2021/04/11 11:55:16;;;;;;;1.60;1.30;;;5.90;98.20;;;;;;5005649;28;20491;-77
2021/04/11 11:57:52;;;;;;;1.50;1.20;;;5.90;98.20;;;;;;5009893;28;20963;-77
2021/04/11 12:00:21;;;;;;;1.50;1.20;;;5.90;98.20;;;;;;5005402;28;21027;-77
2021/04/11 12:03:03;;;;;;;1.60;1.30;;;6.00;98.20;;;;;;5003971;28;20483;-78
2021/04/11 12:05:38;;;;;;;1.60;1.20;;;6.10;98.20;;;;;;5006648;28;21006;-78
2021/04/11 12:08:13;;;;;;;1.57;1.30;;;6.20;98.20;;;;;;5012906;28;20515;-77
2021/04/11 12:10:45;;;;;;;1.53;1.20;;;6.30;98.20;;;;;;5003195;28;20507;-77
2021/04/11 12:13:32;;;;;;;1.60;1.30;;;6.40;98.20;;;;;;5000834;28;20930;-77
2021/04/11 12:16:13;;;;;;;1.50;1.20;;;6.40;98.20;;;;;;4997936;28;20822;-78
2021/04/11 12:18:50;;;;;;;1.50;1.20;;;6.50;98.20;;;;;;5014013;28;20475;-78
2021/04/11 12:21:26;;;;;;;1.60;1.20;;;6.50;98.20;;;;;;5007442;28;20469;-78
2021/04/11 12:24:00;;;;;;;1.60;1.30;;;6.50;98.20;;;;;;5013163;28;20582;-77
2021/04/11 12:26:32;;;;;;;1.60;1.27;;;6.40;98.20;;;;;;4996736;28;20827;-78
2021/04/11 12:29:06;;;;;;;1.60;1.30;;;6.30;98.20;;;;;;5016058;28;20519;-77
2021/04/11 12:31:40;;;;;;;1.57;1.27;;;6.30;98.20;;;;;;5005338;28;20570;-77
2021/04/11 12:34:24;;;;;;;1.60;1.23;;;6.30;98.20;;;;;;5013532;28;20460;-77
2021/04/11 12:37:04;;;;;;;1.50;1.10;;;6.40;98.20;;;;;;5005358;28;20483;-77
2021/04/11 12:39:32;;;;;;;1.57;1.20;;;6.50;98.20;;;;;;5010114;28;20505;-77
2021/04/11 12:42:18;;;;;;;1.60;1.40;;;6.60;98.20;;;;;;5004743;28;20508;-78
2021/04/11 12:44:49;;;;;;;1.60;1.30;;;6.60;98.20;;;;;;5008789;28;20486;-78
2021/04/11 12:47:26;;;;;;;1.53;1.20;;;6.70;98.20;;;;;;5007764;28;20551;-78
2021/04/11 12:49:58;;;;;;;1.60;1.30;;;6.80;98.20;;;;;;5009783;28;20494;-78
2021/04/11 12:52:36;;;;;;;1.60;1.40;;;6.90;98.20;;;;;;5006119;28;20475;-78
2021/04/11 12:55:10;;;;;;;1.60;1.23;;;6.90;98.20;;;;;;5004739;28;20608;-77
2021/04/11 12:57:55;;;;;;;1.60;1.30;;;7.00;98.20;;;;;;5021736;28;20568;-78
2021/04/11 13:00:26;;;;;;;1.50;1.17;;;7.00;98.20;;;;;;5006288;28;20599;-78
2021/04/11 13:03:02;;;;;;;1.57;1.20;;;6.90;98.20;;;;;;5008906;28;20479;-78
2021/04/11 13:05:33;;;;;;;1.60;1.40;;;6.80;98.20;;;;;;5012246;28;20610;-76
2021/04/11 13:08:09;;;;;;;1.60;1.37;;;6.80;98.20;;;;;;5012688;28;20470;-77
2021/04/11 13:10:44;;;;;;;1.60;1.20;;;6.80;98.20;;;;;;4998193;28;20503;-76
2021/04/11 13:13:21;;;;;;;1.57;1.10;;;6.80;98.20;;;;;;4991752;28;20559;-76
2021/04/11 13:15:54;;;;;;;1.60;1.40;;;6.80;98.20;;;;;;4993607;28;20467;-76
2021/04/11 13:18:31;;;;;;;1.57;1.20;;;6.80;98.20;;;;;;5016873;28;20994;-76
2021/04/11 13:21:08;;;;;;;1.53;1.20;;;6.90;98.20;;;;;;4995392;28;20590;-76
2021/04/11 13:23:45;;;;;;;1.60;1.20;;;7.00;98.20;;;;;;5016209;28;20730;-76
2021/04/11 13:26:18;;;;;;;1.53;1.20;;;6.90;98.20;;;;;;4996878;28;20487;-76
2021/04/11 13:28:49;;;;;;;1.60;1.30;;;7.00;98.20;;;;;;5014213;28;20562;-76
2021/04/11 13:31:22;;;;;;;1.60;1.20;;;7.10;98.20;;;;;;5000121;28;20475;-76
2021/04/11 13:33:53;;;;;;;1.57;1.20;;;7.10;98.20;;;;;;5019071;28;20471;-76
2021/04/11 13:36:31;;;;;;;1.60;1.30;;;7.10;98.20;;;;;;4993389;28;20872;-76
2021/04/11 13:39:02;;;;;;;1.53;1.20;;;7.00;98.20;;;;;;5015593;28;20545;-76
2021/04/11 13:41:42;;;;;;;1.60;1.37;;;7.00;98.20;;;;;;5005143;28;20566;-76
2021/04/11 13:44:24;;;;;;;1.60;1.33;;;6.90;98.20;;;;;;5006141;28;20606;-76
2021/04/11 13:46:54;;;;;;;1.60;1.23;;;6.90;98.20;;;;;;4998196;28;20491;-76
2021/04/11 13:49:29;;;;;;;1.53;1.20;;;6.80;98.20;;;;;;5011231;28;20480;-76
2021/04/11 13:52:05;;;;;;;1.60;1.20;;;6.90;98.20;;;;;;4995462;28;20507;-76
2021/04/11 13:54:46;;;;;;;1.53;1.20;;;6.90;98.20;;;;;;5012882;28;20455;-76
2021/04/11 13:57:31;;;;;;;1.50;1.20;;;6.80;98.20;;;;;;5009269;28;20498;-76
2021/04/11 14:00:04;;;;;;;1.53;1.20;;;6.80;98.20;;;;;;4995174;28;20631;-76
2021/04/11 14:02:34;;;;;;;1.57;1.30;;;6.80;98.20;;;;;;5002727;28;20661;-76
2021/04/11 14:05:18;;;;;;;1.60;1.23;;;6.90;98.20;;;;;;5007794;28;20484;-76
2021/04/11 14:07:54;;;;;;;1.60;1.30;;;6.90;98.20;;;;;;5025259;28;20886;-76